• Join FlightAware (Why Join?)
  • Login
  • US Flag 
12:27AM EDT


 

Airport Tracker/Info


-or-


 

Live Flight TrackerFlight Track Log ✈ FDX1347 ✈ 12-Jun-2013 ✈ KALB - KMEM

Flight Track Log - Related Links

Times and Time Zones

All times are in EDT time to prevent confusion due to time zone crossing. See the FDX1347 flight status page for this flight to view local times or setup timezone preferences in your user account.

Time Position Orientation Groundspeed Altitude Reporting Facility
EDT Latitude Longitude Course Direction KTS MPH feet Rate Location/Type
09:49PM 42.7236 -73.8081 179° South 163 188 1,600  Level Boston Center
09:49PM 42.6922 -73.8072 179° South 185 213 3,000 2,340 Climbing Boston Center
09:50PM 42.6683 -73.8831 247° West 269 310 5,900 2,880 Climbing Boston Center
09:56PM 42.4130 -74.5240 247° West 445 512 22,900 2,640 Climbing FlightAware
09:57PM 42.3100 -74.5930 206° Southwest 448 516 23,900 2,280 Climbing FlightAware
09:58PM 42.2670 -74.6620 230° Southwest 427 491 26,400 2,640 Climbing FlightAware
09:58PM 42.2290 -74.7380 236° Southwest 422 486 26,800 1,680 Climbing FlightAware
09:59PM 42.1910 -74.8910 252° West 435 501 29,100 2,220 Climbing FlightAware
10:00PM 42.1610 -74.9900 248° West 440 506 30,400 2,340 Climbing FlightAware
10:01PM 42.1230 -75.1160 248° West 428 493 32,600 2,820 Climbing FlightAware
10:01PM 42.0940 -75.2150 248° West 411 473 34,600 2,040 Climbing FlightAware
10:02PM 42.0590 -75.3140 245° Southwest 433 498 35,500 1,320 Climbing FlightAware
10:03PM 42.0200 -75.3760 230° Southwest 450 518 36,300 1,560 Climbing FlightAware
10:03PM 41.9530 -75.4670 225° Southwest 449 517 37,500 1,560 Climbing FlightAware
10:04PM 41.8810 -75.5640 225° Southwest 442 509 38,700 1,200 Climbing FlightAware
10:05PM 41.8300 -75.6340 226° Southwest 442 509 39,300 900 Climbing FlightAware
10:05PM 41.7700 -75.7150 225° Southwest 434 499 40,000 480 Climbing FlightAware
10:06PM 41.7080 -75.8010 226° Southwest 426 490 40,000  Level FlightAware
10:07PM 41.6480 -75.8820 225° Southwest 439 505 40,000  Level FlightAware
10:08PM 41.5830 -75.9710 226° Southwest 441 507 40,000  Level FlightAware
10:08PM 41.5220 -76.0530 225° Southwest 439 505 40,000  Level FlightAware
10:09PM 41.4690 -76.1230 225° Southwest 442 509 40,000  Level FlightAware
10:10PM 41.4010 -76.2150 225° Southwest 451 519 40,000  Level FlightAware
10:10PM 41.3410 -76.2960 225° Southwest 452 520 40,000  Level FlightAware
10:11PM 41.2850 -76.3690 224° Southwest 452 520 40,000  Level FlightAware
10:12PM 41.2130 -76.4650 225° Southwest 443 510 40,000  Level FlightAware
10:12PM 41.1550 -76.5420 225° Southwest 444 511 40,000  Level FlightAware
10:13PM 41.0880 -76.6300 225° Southwest 439 505 40,000  Level FlightAware
10:14PM 41.0310 -76.7060 225° Southwest 436 502 40,000  Level FlightAware
10:14PM 40.9810 -76.7720 225° Southwest 434 499 40,000  Level FlightAware
10:15PM 40.9130 -76.8610 225° Southwest 431 496 40,000  Level FlightAware
10:16PM 40.8520 -76.9400 224° Southwest 429 494 40,000  Level FlightAware
10:17PM 40.7940 -77.0150 224° Southwest 427 491 40,000  Level FlightAware
10:17PM 40.7370 -77.0900 225° Southwest 425 489 40,000  Level FlightAware
10:18PM 40.6770 -77.1670 224° Southwest 418 481 40,000  Level FlightAware
10:19PM 40.6200 -77.2420 225° Southwest 417 480 40,000  Level FlightAware
10:19PM 40.5630 -77.3160 225° Southwest 416 479 40,000  Level FlightAware
10:20PM 40.4930 -77.4060 224° Southwest 415 478 40,000  Level FlightAware
10:21PM 40.4240 -77.4930 224° Southwest 414 476 40,000  Level FlightAware
10:22PM 40.3680 -77.5660 225° Southwest 415 478 40,000  Level FlightAware
10:22PM 40.3130 -77.6360 224° Southwest 416 479 40,000  Level FlightAware
10:23PM 40.2540 -77.7110 224° Southwest 425 489 40,000  Level FlightAware
10:24PM 40.1900 -77.7910 224° Southwest 426 490 40,000  Level FlightAware
10:25PM 40.1380 -77.8580 225° Southwest 427 491 40,000  Level FlightAware
10:26PM 40.0440 -77.9760 224° Southwest 429 494 40,000  Level FlightAware
10:26PM 39.9840 -78.0520 224° Southwest 431 496 40,000  Level FlightAware
10:27PM 39.9270 -78.1220 223° Southwest 432 497 40,000  Level FlightAware
10:28PM 39.8700 -78.1950 225° Southwest 433 498 40,000  Level FlightAware
10:28PM 39.8100 -78.2690 223° Southwest 434 499 40,000  Level FlightAware
10:29PM 39.7510 -78.3430 224° Southwest 436 502 40,000  Level FlightAware
10:30PM 39.6810 -78.4290 223° Southwest 437 503 40,000  Level FlightAware
10:30PM 39.6190 -78.5070 224° Southwest 438 504 40,000  Level FlightAware
10:31PM 39.5580 -78.5830 224° Southwest 439 505 40,000  Level FlightAware
10:32PM 39.5040 -78.6480 223° Southwest 438 504 40,000  Level FlightAware
10:33PM 39.4360 -78.7310 223° Southwest 437 503 40,000  Level FlightAware
10:33PM 39.3760 -78.8050 224° Southwest 437 503 40,000  Level FlightAware
10:34PM 39.3100 -78.8850 223° Southwest 436 502 40,000  Level FlightAware
10:35PM 39.2530 -78.9550 224° Southwest 435 501 40,000  Level FlightAware
10:35PM 39.1960 -79.0340 227° Southwest 428 493 40,000  Level FlightAware
10:36PM 39.1400 -79.1180 229° Southwest 428 493 40,000  Level FlightAware
10:37PM 39.0850 -79.2030 230° Southwest 428 493 40,000  Level FlightAware
10:37PM 39.0330 -79.2810 229° Southwest 425 489 40,000  Level FlightAware
10:38PM 38.9760 -79.3670 230° Southwest 424 488 40,000  Level FlightAware
10:39PM 38.9370 -79.4390 235° Southwest 416 479 40,000  Level FlightAware
10:39PM 38.9060 -79.5430 249° West 409 471 40,000  Level FlightAware
10:40PM 38.8820 -79.6430 253° West 410 472 40,000  Level FlightAware
10:41PM 38.8590 -79.7380 253° West 410 472 40,000  Level FlightAware
10:42PM 38.8370 -79.8290 253° West 412 474 40,000  Level FlightAware
10:42PM 38.8120 -79.9340 253° West 412 474 40,000  Level FlightAware
10:43PM 38.7890 -80.0300 253° West 413 475 40,000  Level FlightAware
10:44PM 38.7640 -80.1320 253° West 413 475 40,000  Level FlightAware
10:44PM 38.7400 -80.2290 252° West 415 478 40,000  Level FlightAware
10:46PM 38.7080 -80.3600 253° West 419 482 40,000  Level FlightAware
10:46PM 38.6750 -80.4910 252° West 421 484 40,000  Level FlightAware
10:47PM 38.6500 -80.5960 253° West 424 488 40,000  Level FlightAware
10:48PM 38.6240 -80.6940 251° West 427 491 40,000  Level FlightAware
10:48PM 38.5990 -80.7950 252° West 429 494 40,000  Level FlightAware
10:49PM 38.5740 -80.8940 252° West 429 494 40,000  Level FlightAware
10:50PM 38.5520 -80.9830 252° West 430 495 40,000  Level FlightAware
10:50PM 38.5220 -81.1020 252° West 431 496 40,000  Level FlightAware
10:51PM 38.4950 -81.2080 252° West 430 495 40,000  Level FlightAware
10:52PM 38.4700 -81.3070 252° West 429 494 40,000  Level FlightAware
10:53PM 38.4445 -81.4027 251° West 429 494 40,000  Level FlightAware ADS-B
10:53PM 38.4231 -81.4867 252° West 428 493 40,000  Level FlightAware ADS-B
10:54PM 38.4026 -81.5657 252° West 428 493 40,000  Level FlightAware ADS-B
10:55PM 38.3560 -81.7420 251° West 426 490 40,000  Level FlightAware
10:56PM 38.3220 -81.8360 245° Southwest 429 494 40,000  Level FlightAware
10:56PM 38.2830 -81.9300 242° Southwest 432 497 40,000  Level FlightAware
10:57PM 38.2400 -82.0310 242° Southwest 434 499 40,000  Level FlightAware
10:57PM 38.2258 -82.0649 242° Southwest 435 501 40,000  Level FlightAware ADS-B
10:58PM 38.1956 -82.1371 242° Southwest 438 504 40,000  Level FlightAware ADS-B
10:58PM 38.1666 -82.2052 242° Southwest 440 506 40,000  Level FlightAware ADS-B
10:59PM 38.1371 -82.2758 242° Southwest 441 507 40,000  Level FlightAware ADS-B
10:59PM 38.1075 -82.3444 241° Southwest 442 509 40,000  Level FlightAware ADS-B
11:00PM 38.0736 -82.4246 242° Southwest 445 512 40,000  Level FlightAware ADS-B
11:01PM 38.0187 -82.5536 242° Southwest 449 517 40,000  Level FlightAware ADS-B
11:01PM 37.9875 -82.6254 241° Southwest 450 518 40,000  Level FlightAware ADS-B
11:02PM 37.9576 -82.6951 241° Southwest 451 519 40,000  Level FlightAware ADS-B
11:02PM 37.9275 -82.7673 242° Southwest 453 521 40,000  Level FlightAware ADS-B
11:03PM 37.8906 -82.8513 241° Southwest 454 522 40,000  Level FlightAware ADS-B
11:04PM 37.8556 -82.9330 242° Southwest 455 524 40,000  Level FlightAware ADS-B
11:04PM 37.8150 -83.0260 241° Southwest 456 525 40,000  Level FlightAware
11:05PM 37.7949 -83.0734 242° Southwest 456 525 40,000  Level FlightAware ADS-B
11:05PM 37.7575 -83.1599 241° Southwest 457 526 40,000  Level FlightAware ADS-B
11:06PM 37.7268 -83.2300 241° Southwest 458 527 40,000  Level FlightAware ADS-B
11:06PM 37.6958 -83.3002 241° Southwest 457 526 40,000  Level FlightAware ADS-B
11:07PM 37.6640 -83.3725 241° Southwest 457 526 40,000  Level FlightAware ADS-B
11:07PM 37.6300 -83.4515 241° Southwest 456 525 40,000  Level FlightAware ADS-B
11:08PM 37.5676 -83.5929 241° Southwest 456 525 40,000  Level FlightAware ADS-B
11:09PM 37.5367 -83.6624 241° Southwest 454 522 40,000  Level FlightAware ADS-B
11:09PM 37.5060 -83.7315 241° Southwest 454 522 40,000  Level FlightAware ADS-B
11:10PM 37.4753 -83.8006 241° Southwest 453 521 40,000  Level FlightAware ADS-B
11:10PM 37.4414 -83.8764 241° Southwest 453 521 40,000  Level FlightAware ADS-B
11:11PM 37.4120 -83.9410 240° Southwest 452 520 40,000  Level FlightAware
11:11PM 37.3763 -84.0229 241° Southwest 452 520 40,000  Level FlightAware ADS-B
11:12PM 37.3436 -84.0960 241° Southwest 450 518 40,000  Level FlightAware ADS-B
11:12PM 37.3125 -84.1641 240° Southwest 450 518 40,000  Level FlightAware ADS-B
11:13PM 37.2818 -84.2343 241° Southwest 449 517 40,000  Level FlightAware ADS-B
11:13PM 37.2505 -84.3022 240° Southwest 447 514 40,000  Level FlightAware ADS-B
11:14PM 37.2156 -84.3808 241° Southwest 446 513 40,000  Level FlightAware ADS-B
11:15PM 37.1797 -84.4592 240° Southwest 445 512 40,000  Level FlightAware ADS-B
11:15PM 37.1488 -84.5285 241° Southwest 444 511 40,000  Level FlightAware ADS-B
11:16PM 37.1019 -84.6314 240° Southwest 444 511 40,000  Level FlightAware ADS-B
11:17PM 37.0600 -84.7230 240° Southwest 444 511 40,000  Level FlightAware
11:17PM 37.0413 -84.7630 240° Southwest 445 512 40,000  Level FlightAware ADS-B
11:17PM 37.0096 -84.8320 240° Southwest 444 511 40,000  Level FlightAware ADS-B
11:18PM 36.9780 -84.9011 240° Southwest 443 510 40,000  Level FlightAware ADS-B
11:18PM 36.9460 -84.9721 241° Southwest 443 510 40,000  Level FlightAware ADS-B
11:19PM 36.9091 -85.0520 240° Southwest 443 510 40,000  Level FlightAware ADS-B
11:20PM 36.8705 -85.1339 240° Southwest 443 510 40,000  Level FlightAware ADS-B
11:20PM 36.8380 -85.2046 240° Southwest 443 510 40,000  Level FlightAware ADS-B
11:21PM 36.8061 -85.2730 240° Southwest 442 509 40,000  Level FlightAware ADS-B
11:21PM 36.7743 -85.3415 240° Southwest 443 510 40,000  Level FlightAware ADS-B
11:22PM 36.7434 -85.4077 240° Southwest 443 510 40,000  Level FlightAware ADS-B
11:22PM 36.7061 -85.4892 240° Southwest 443 510 40,000  Level FlightAware ADS-B
11:23PM 36.6734 -85.5575 239° Southwest 443 510 40,000  Level FlightAware ADS-B
11:24PM 36.6288 -85.6525 240° Southwest 444 511 40,000  Level FlightAware ADS-B
11:24PM 36.5750 -85.7690 240° Southwest 444 511 40,000  Level FlightAware
11:25PM 36.5572 -85.8045 238° Southwest 445 512 40,000  Level FlightAware ADS-B
11:25PM 36.5203 -85.8837 240° Southwest 444 511 40,000  Level FlightAware ADS-B
11:26PM 36.4890 -85.9500 240° Southwest 444 511 40,000  Level FlightAware
11:26PM 36.4809 -85.9674 240° Southwest 444 511 40,000  Level FlightAware ADS-B
11:26PM 36.4507 -86.0342 241° Southwest 443 510 40,000  Level FlightAware ADS-B
11:27PM 36.4060 -86.1400 242° Southwest 442 509 40,000  Level FlightAware
11:28PM 36.3710 -86.2230 242° Southwest 442 509 40,000  Level FlightAware
11:29PM 36.3280 -86.3210 241° Southwest 441 507 40,000  Level FlightAware
11:29PM 36.2850 -86.4160 241° Southwest 443 510 40,000  Level FlightAware
11:30PM 36.2500 -86.4960 242° Southwest 442 509 40,000  Level FlightAware
11:31PM 36.2020 -86.6050 241° Southwest 442 509 40,000  Level FlightAware
11:31PM 36.1891 -86.6340 241° Southwest 442 509 40,000  Level FlightAware ADS-B
11:32PM 36.1559 -86.7094 241° Southwest 441 507 40,000 -420 Level FlightAware ADS-B
11:33PM 36.0870 -86.8660 241° Southwest 436 502 39,300 -780 Descending FlightAware
11:33PM 36.0440 -86.9610 241° Southwest 430 495 38,600 -1,080 Descending FlightAware
11:34PM 35.9997 -87.0605 241° Southwest 432 497 37,700 -1,260 Descending FlightAware ADS-B
11:35PM 35.9687 -87.1298 241° Southwest 434 499 37,000 -1,200 Descending FlightAware ADS-B
11:36PM 35.9230 -87.2320 241° Southwest 435 501 36,100 -1,200 Descending FlightAware
11:36PM 35.8820 -87.3230 241° Southwest 435 501 35,200 -840 Descending FlightAware
11:37PM 35.8440 -87.4070 241° Southwest 435 501 35,000 -180 Descending FlightAware
11:38PM 35.8040 -87.4960 241° Southwest 434 499 35,000  Level FlightAware
11:38PM 35.7580 -87.5960 240° Southwest 437 503 35,000 -300 Level FlightAware
11:39PM 35.7220 -87.6760 241° Southwest 436 502 34,600 -1,140 Descending FlightAware
11:40PM 35.6750 -87.7780 240° Southwest 440 506 33,400 -840 Descending FlightAware
11:40PM 35.6410 -87.8500 240° Southwest 440 506 33,400  Level FlightAware
11:41PM 35.6020 -87.9350 241° Southwest 440 506 33,400  Level FlightAware
11:42PM 35.5700 -88.0030 240° Southwest 440 506 33,400  Level FlightAware
11:43PM 35.5300 -88.0880 240° Southwest 440 506 33,400  Level FlightAware
11:43PM 35.5000 -88.1500 239° Southwest 440 506 33,400  Level FlightAware
11:44PM 35.4590 -88.2390 241° Southwest 440 506 33,400  Level FlightAware
11:45PM 35.4270 -88.3070 240° Southwest 440 506 33,400  Level FlightAware
11:45PM 35.3850 -88.3950 240° Southwest 440 506 33,400  Level FlightAware
11:46PM 35.3540 -88.4610 240° Southwest 440 506 33,400  Level FlightAware
11:47PM 35.3120 -88.5490 240° Southwest 440 506 33,400  Level FlightAware
11:47PM 35.2810 -88.6150 240° Southwest 440 506 33,400  Level FlightAware
11:48PM 35.2390 -88.7050 240° Southwest 440 506 33,400  Level FlightAware
11:49PM 35.2070 -88.7730 240° Southwest 440 506 33,400  Level FlightAware
11:50PM 35.1650 -88.8610 240° Southwest 440 506 33,400 -21,660 Level FlightAware
11:50PM 35.0778 -89.0656 240° Southwest 378 435 10,300 -18,720 Descending Memphis Center
11:51PM 35.0389 -89.1472 240° Southwest 324 373 9,700 -1,140 Descending Memphis Center
11:52PM 35.0378 -89.2361 269° West 285 328 8,100 -1,560 Descending Memphis Center
11:53PM 35.0428 -89.3272 274° West 268 308 6,600 -1,440 Descending Memphis Center
11:54PM 35.0433 -89.4136 270° West 268 308 5,300 -780 Descending Memphis Center
11:55PM 35.0461 -89.4947 272° West 251 289 5,100 -360 Descending Memphis Center
11:56PM 35.0486 -89.5783 272° West 251 289 4,600 -540 Descending Memphis Center
11:57PM 35.0492 -89.6619 270° West 251 289 4,100 -600 Descending Memphis Center
11:58PM 35.0517 -89.7306 273° West 245 282 3,500 -1,080 Descending Memphis Center
11:59PM 35.0561 -89.8014 274° West 227 261 2,000 -900 Descending Memphis Center
12:00AM 35.0564 -89.8675 270° West 210 242 1,700 -540 Descending Memphis Center
12:01AM 35.0500 -89.9000 257° West 131 151 1,100 -660 Descending KMEM
12:02AM 35.0500 -89.9333 270° West 106 122 600 -540 Descending KMEM
12:06AM 35.0333 -89.9667 270° West  Level FlightAware Approximate
12:13AM 35.0424 -89.9767 270° West  Level Estimated
12:14AM 35.0424 -89.9767 270° West  Level Estimated
12:15AM 35.0424 -89.9767 270° West  Level Estimated
12:16AM 35.0424 -89.9767 270° West  Level Estimated
12:17AM 35.0424 -89.9767 270° West  Level Estimated
12:18AM 35.0424 -89.9767 270° West  Level Estimated
12:19AM 35.0424 -89.9767 270° West  Level Estimated